Houston, TX

6:31 AM CDT on March 30, 2015 (GMT -0500)
SE-Svc-Cntr | | Change Station
CLOSE
Current Station
Personal Weather Station
Location: Houston, TX
Elevation: 46 ft
Nearby Weather Stations

Elev 46 ft 29.71 °N, 95.26 °W | Updated 53 minutes ago

Partly Cloudy
Partly Cloudy
63.0 °F
Feels Like 63.0 °F
N
0.0
Wind Variable Wind from West
Gusts 0.0 mph

Today
High -- | Low -- °F
--% Chance of Precip.
Yesterday
High -- | Low -- °F
Precip. -- in
7:12 AM 7:38 PM
Waxing Gibbous, 79% visible
Pressure 30.16 in
Visibility 10.0 miles
Clouds Few 1500 ft
Dew Point 62 °F
Humidity 96%
Rainfall 0.00 in
Snow Depth Not available.
UV 0 out of 12
Pollen 10.30 out of 12
Air Quality Not available.
Flu Activity Not available.
METAR KHOU 301053Z 00000KT 10SM FEW015 16/16 A3015 RMK AO2 SLP213 T01610161

More Conditions Fewer Conditions

Pressure 30.16 in
Visibility 10.0 miles
Clouds Few 1500 ft
Dew Point 62 °F
Humidity 96%
Rainfall 0.00 in
Snow Depth Not available.
UV 0 out of 12
Pollen 10.30 out of 12
Air Quality Not available.
Flu Activity Not available.
METAR KHOU 301053Z 00000KT 10SM FEW015 16/16 A3015 RMK AO2 SLP213 T01610161

More Conditions Fewer Conditions

10-Day Weather Forecast

Almanac

Astronomy

Mar. 30, 2015 Rise Set
Actual Time
Civil Twilight
Nautical Twilight
Astronomical Twilight
Moon
Length of Visible Light
Length of Day
Tomorrow will be .
, % of the Moon is Illuminated

Today's Extremes

State Highs State Lows

Community

WunderPhotos

Upload Photos

1,809,457 photos uploaded!

WunderBlogs® & News

Nearby

Air Quality

  Air Quality AQ Index Pollutant
Not available.

Snow Depth

Station Depth Elevation

Earthquake Activity

City Distance Mag. Time & Date
Minimum magnitude displayed is 2.5.

Coastal Water Temperatures

Place Temperature

Stations

Nearby Weather Stations

Station Location Temp. Windchill Dew Point Humidity Wind Precip. Elev Updated Type